Time;durP1;ratioP1;P1;durP2;ratioP2;P2;SDS_P1;SDS_P2;PMS_P1;PMS_P2;Temp;Humidity;BMP_temperature;BMP_pressure;BME280_temperature;BME280_humidity;BME280_pressure;Samples;Min_cycle;Max_cycle;Signal;HPM_P1;HPM_P2
2023/04/14 06:30:40;;;;;;;4.50;2.57;;;42.30;99.90;;;;;;4988356;28;20504;-83
2023/04/14 06:33:06;;;;;;;8.57;2.90;;;42.60;99.90;;;;;;4989557;28;20448;-82
2023/04/14 06:35:33;;;;;;;6.67;2.20;;;43.00;99.90;;;;;;4991612;28;20192;-84
2023/04/14 06:38:02;;;;;;;4.90;2.10;;;43.20;99.90;;;;;;4992321;28;20192;-83
2023/04/14 06:40:27;;;;;;;4.30;2.37;;;43.80;99.90;;;;;;4982809;28;21064;-86
2023/04/14 06:42:53;;;;;;;7.50;2.70;;;43.90;99.90;;;;;;4987139;28;20454;-84
2023/04/14 06:45:18;;;;;;;4.77;2.23;;;44.40;99.90;;;;;;4989253;28;20247;-83
2023/04/14 06:47:44;;;;;;;9.17;2.63;;;44.50;99.90;;;;;;4988972;28;20192;-87
2023/04/14 06:50:11;;;;;;;3.80;2.00;;;44.60;99.90;;;;;;4987176;28;20230;-83
2023/04/14 06:52:36;;;;;;;9.13;2.40;;;44.90;99.90;;;;;;4988915;28;20180;-87
2023/04/14 06:55:04;;;;;;;4.57;2.10;;;45.80;99.90;;;;;;4986226;28;20445;-85
2023/04/14 06:57:30;;;;;;;8.10;2.30;;;46.20;99.90;;;;;;4984787;28;20219;-86
2023/04/14 06:59:55;;;;;;;4.90;2.30;;;46.90;99.90;;;;;;4991209;28;20474;-83
2023/04/14 07:02:21;;;;;;;5.73;1.77;;;47.70;99.90;;;;;;4988692;28;20196;-85
2023/04/14 07:04:46;;;;;;;5.90;2.20;;;47.80;99.90;;;;;;4989664;28;20175;-85
2023/04/14 07:07:13;;;;;;;5.50;2.00;;;48.40;99.90;;;;;;4987857;28;20183;-87
2023/04/14 07:09:42;;;;;;;10.47;2.27;;;48.90;99.90;;;;;;4988128;28;20204;-84
2023/04/14 07:12:15;;;;;;;6.80;2.60;;;48.90;99.90;;;;;;4988307;28;20879;-83
2023/04/14 07:14:41;;;;;;;5.70;2.23;;;49.20;99.90;;;;;;4986137;28;20446;-83
2023/04/14 07:17:07;;;;;;;6.13;2.33;;;49.30;99.90;;;;;;4992047;28;20435;-84
2023/04/14 07:19:32;;;;;;;4.77;2.20;;;49.10;99.90;;;;;;4987667;28;20469;-83
2023/04/14 07:21:58;;;;;;;5.20;2.30;;;48.50;99.90;;;;;;4983680;28;20179;-84
2023/04/14 07:24:24;;;;;;;5.03;2.20;;;48.50;99.90;;;;;;4985899;28;20176;-83
2023/04/14 07:26:50;;;;;;;3.23;1.80;;;48.00;99.90;;;;;;4983586;28;20180;-82
2023/04/14 07:29:15;;;;;;;6.53;2.20;;;48.20;99.90;;;;;;4978797;28;20278;-87
2023/04/14 07:31:41;;;;;;;6.57;2.60;;;48.30;99.90;;;;;;4988602;28;20202;-85
2023/04/14 07:36:48;;;;;;;5.63;2.20;;;48.90;99.90;;;;;;5817463;23;20234;-84
2023/04/14 07:39:14;;;;;;;7.10;2.17;;;49.30;99.90;;;;;;4965074;28;20531;-84
2023/04/14 07:41:40;;;;;;;2.70;1.30;;;49.10;99.90;;;;;;4967876;28;20443;-85
2023/04/14 07:44:05;;;;;;;4.40;2.30;;;49.50;99.90;;;;;;4987448;28;20181;-85
2023/04/14 07:46:31;;;;;;;4.87;2.30;;;49.60;99.90;;;;;;4982588;28;20465;-84
2023/04/14 07:48:57;;;;;;;5.00;1.97;;;48.90;99.90;;;;;;4950033;28;20199;-85
2023/04/14 07:51:23;;;;;;;5.47;1.80;;;48.70;99.90;;;;;;4955225;28;20180;-84
2023/04/14 07:53:51;;;;;;;5.10;1.90;;;48.40;99.90;;;;;;4943398;28;20436;-84
2023/04/14 07:56:16;;;;;;;5.17;1.80;;;48.00;99.90;;;;;;4958916;28;20181;-84
2023/04/14 07:58:42;;;;;;;6.20;2.03;;;48.10;99.90;;;;;;4959154;28;20617;-85
2023/04/14 08:01:07;;;;;;;5.80;2.60;;;47.20;99.90;;;;;;4950155;28;20684;-84
2023/04/14 08:03:36;;;;;;;5.53;2.10;;;46.30;99.90;;;;;;4965097;28;20188;-86
2023/04/14 08:06:02;;;;;;;8.80;2.70;;;45.60;99.90;;;;;;4941239;28;20205;-84
2023/04/14 08:21:58;;;;;;;4.50;2.50;;;44.10;99.90;;;;;;5959812;23;21326;-84
2023/04/14 08:24:26;;;;;;;5.20;2.00;;;44.10;99.90;;;;;;4964761;28;20918;-85
2023/04/14 08:26:51;;;;;;;3.57;1.93;;;44.60;99.90;;;;;;4998048;28;20434;-84
2023/04/14 08:29:17;;;;;;;5.40;2.43;;;45.70;99.90;;;;;;4987801;28;20485;-84
2023/04/14 08:31:43;;;;;;;7.07;2.20;;;46.30;99.90;;;;;;4991469;28;20891;-84
2023/04/14 08:34:08;;;;;;;4.37;1.47;;;46.50;99.90;;;;;;4992360;28;20207;-85
2023/04/14 08:36:34;;;;;;;3.03;1.80;;;46.60;99.90;;;;;;4991888;28;20709;-84
2023/04/14 08:38:59;;;;;;;3.23;2.00;;;47.20;99.90;;;;;;4989482;28;20295;-85
2023/04/14 08:41:34;;;;;;;4.10;1.83;;;47.20;99.90;;;;;;4971581;28;20652;-85
2023/04/14 08:44:08;;;;;;;5.60;2.13;;;47.20;99.90;;;;;;4980908;28;20590;-84
2023/04/14 08:46:35;;;;;;;5.83;2.27;;;47.30;99.90;;;;;;4976876;28;20442;-86
2023/04/14 08:49:05;;;;;;;6.83;2.10;;;47.00;99.90;;;;;;4982849;28;20446;-85
2023/04/14 08:51:40;;;;;;;5.20;1.67;;;46.30;99.90;;;;;;4984622;28;20474;-86
2023/04/14 08:54:09;;;;;;;6.03;2.17;;;46.20;99.90;;;;;;4975620;28;20435;-84
2023/04/14 08:56:37;;;;;;;5.83;2.00;;;45.70;99.90;;;;;;4970030;28;20454;-85
2023/04/14 08:59:07;;;;;;;6.33;2.20;;;45.00;99.90;;;;;;4981893;28;20475;-86
2023/04/14 09:01:41;;;;;;;3.53;1.93;;;44.80;99.90;;;;;;4978468;28;20463;-85
2023/04/14 09:04:08;;;;;;;4.70;2.27;;;44.90;99.90;;;;;;4978464;28;20434;-85
2023/04/14 09:06:33;;;;;;;3.93;1.83;;;44.20;99.90;;;;;;4980451;28;20502;-84
2023/04/14 09:09:09;;;;;;;4.40;1.90;;;43.50;99.90;;;;;;4984681;28;20446;-85
2023/04/14 09:11:36;;;;;;;3.10;1.50;;;43.80;99.90;;;;;;4976848;28;20238;-85
2023/04/14 09:14:05;;;;;;;4.07;1.87;;;43.80;99.90;;;;;;4980014;28;20442;-84
2023/04/14 09:16:32;;;;;;;3.90;1.63;;;43.20;99.90;;;;;;4986598;28;20477;-86
2023/04/14 09:18:58;;;;;;;3.67;1.63;;;42.80;99.90;;;;;;4982546;28;20937;-85
2023/04/14 09:21:26;;;;;;;7.63;1.90;;;42.00;99.90;;;;;;4983781;28;20455;-86
2023/04/14 09:23:51;;;;;;;5.00;1.67;;;41.50;99.90;;;;;;4979233;28;20203;-86
2023/04/14 09:26:19;;;;;;;5.50;2.00;;;41.80;99.90;;;;;;4983815;28;20509;-85
2023/04/14 09:28:45;;;;;;;7.13;1.93;;;41.10;99.90;;;;;;4977580;28;20619;-85
2023/04/14 09:31:10;;;;;;;4.07;1.70;;;40.80;99.90;;;;;;4979602;28;20526;-85
2023/04/14 09:33:43;;;;;;;10.80;1.60;;;39.70;99.90;;;;;;4985202;28;20205;-86
2023/04/14 09:36:22;;;;;;;3.93;1.87;;;38.90;99.90;;;;;;4985275;28;20194;-85
2023/04/14 09:38:49;;;;;;;4.03;1.90;;;38.10;99.90;;;;;;4984586;28;21004;-86
2023/04/14 09:41:22;;;;;;;5.60;1.97;;;38.40;99.90;;;;;;4981808;28;20439;-86
2023/04/14 09:43:49;;;;;;;4.87;1.80;;;38.40;99.90;;;;;;4985930;28;20450;-85
2023/04/14 09:46:15;;;;;;;5.00;2.07;;;38.10;99.90;;;;;;4971213;28;20441;-86
2023/04/14 09:48:51;;;;;;;4.43;1.90;;;37.30;99.90;;;;;;4973030;28;20847;-85
2023/04/14 09:51:19;;;;;;;6.40;2.40;;;37.00;99.90;;;;;;4977280;28;20441;-85
2023/04/14 09:54:21;;;;;;;5.20;1.73;;;37.00;99.90;;;;;;4978601;28;20438;-85
2023/04/14 09:56:56;;;;;;;4.30;1.90;;;37.30;99.90;;;;;;4967253;28;20471;-85
2023/04/14 09:59:32;;;;;;;6.20;2.30;;;36.70;99.90;;;;;;4967480;28;20506;-85
2023/04/14 10:02:02;;;;;;;7.30;2.03;;;36.30;99.90;;;;;;4970654;28;20883;-85
2023/04/14 10:04:27;;;;;;;6.00;2.00;;;36.40;99.90;;;;;;4972186;28;20879;-86
2023/04/14 10:07:06;;;;;;;6.07;2.30;;;36.20;99.90;;;;;;4969819;28;20534;-85
2023/04/14 10:09:36;;;;;;;6.03;1.90;;;36.40;99.90;;;;;;4964567;28;20243;-85
2023/04/14 10:12:10;;;;;;;6.07;1.97;;;36.80;99.90;;;;;;4976476;28;20455;-84
2023/04/14 10:14:37;;;;;;;6.00;2.40;;;36.90;99.90;;;;;;4978968;28;20441;-85
2023/04/14 10:17:03;;;;;;;8.03;1.83;;;36.70;99.90;;;;;;4971068;28;20440;-84
2023/04/14 10:19:29;;;;;;;6.33;2.67;;;37.10;99.90;;;;;;4989593;28;20499;-85
2023/04/14 10:21:56;;;;;;;3.90;1.97;;;37.30;99.90;;;;;;4972497;28;20204;-85
2023/04/14 10:24:23;;;;;;;5.10;2.20;;;36.80;99.90;;;;;;4970213;28;20538;-85
2023/04/14 10:26:50;;;;;;;3.80;1.97;;;36.50;99.90;;;;;;4979612;28;20899;-85
2023/04/14 10:29:15;;;;;;;6.37;2.27;;;35.70;99.90;;;;;;4977234;28;20447;-84
2023/04/14 10:31:45;;;;;;;7.83;2.60;;;35.10;99.90;;;;;;4979477;28;20477;-85
2023/04/14 10:34:13;;;;;;;6.20;2.20;;;34.70;99.90;;;;;;4976025;28;20197;-85
2023/04/14 10:36:39;;;;;;;6.40;2.77;;;34.50;99.90;;;;;;4975228;28;21379;-85
2023/04/14 10:39:05;;;;;;;6.20;2.27;;;33.20;99.90;;;;;;4976745;28;20475;-85
2023/04/14 10:41:46;;;;;;;6.80;2.30;;;32.20;99.90;;;;;;4978843;28;20219;-85
2023/04/14 10:44:41;;;;;;;4.63;1.80;;;31.80;99.90;;;;;;4973316;28;20520;-85
2023/04/14 10:47:06;;;;;;;3.83;2.20;;;32.10;99.90;;;;;;4961998;28;20516;-85
2023/04/14 10:49:36;;;;;;;4.80;2.60;;;31.90;99.90;;;;;;4987920;28;20945;-85
2023/04/14 10:52:04;;;;;;;8.20;2.90;;;31.70;99.90;;;;;;4978004;28;20222;-84
2023/04/14 10:54:52;;;;;;;5.87;2.47;;;31.40;99.90;;;;;;4967045;28;20465;-85
2023/04/14 10:57:55;;;;;;;;;;;;;;;;;;;;;
2023/04/14 11:00:27;;;;;;;4.47;2.23;;;31.30;99.90;;;;;;4975903;28;20476;-85
2023/04/14 11:03:04;;;;;;;6.67;2.33;;;31.40;99.90;;;;;;4985535;28;20458;-85
2023/04/14 11:05:34;;;;;;;5.77;2.10;;;31.40;99.90;;;;;;4985949;28;20520;-85
2023/04/14 11:08:00;;;;;;;7.87;2.23;;;31.70;99.90;;;;;;4981560;28;20434;-84
2023/04/14 11:10:29;;;;;;;4.37;2.10;;;31.60;99.90;;;;;;4976662;28;20449;-84
2023/04/14 11:12:59;;;;;;;2.93;1.33;;;31.70;99.90;;;;;;4981693;28;20538;-85
2023/04/14 11:16:00;;;;;;;5.00;2.30;;;32.00;99.90;;;;;;4967439;28;20463;-84
2023/04/14 11:18:29;;;;;;;6.00;2.00;;;32.60;99.90;;;;;;4972917;28;20442;-85
2023/04/14 11:21:05;;;;;;;3.93;2.07;;;32.70;99.90;;;;;;4980238;28;20471;-85
2023/04/14 11:23:32;;;;;;;5.57;2.20;;;32.10;99.90;;;;;;4987915;28;20862;-85
2023/04/14 11:25:58;;;;;;;3.90;1.67;;;31.80;99.90;;;;;;4979772;28;20447;-85
2023/04/14 11:28:28;;;;;;;4.80;1.70;;;32.10;99.90;;;;;;4970091;28;20483;-85
2023/04/14 11:30:57;;;;;;;6.47;2.03;;;32.00;99.90;;;;;;4969062;28;20867;-86
2023/04/14 11:33:25;;;;;;;3.67;1.73;;;31.70;99.90;;;;;;4981252;28;20463;-85
2023/04/14 11:35:51;;;;;;;3.50;1.43;;;31.40;99.90;;;;;;4984029;28;20556;-85
2023/04/14 11:38:17;;;;;;;6.80;1.67;;;31.10;99.90;;;;;;4982121;28;20443;-85
2023/04/14 11:40:48;;;;;;;3.83;1.67;;;30.60;99.90;;;;;;4984795;28;20490;-85
2023/04/14 11:43:13;;;;;;;5.70;1.60;;;31.10;99.90;;;;;;4970224;28;20245;-85
2023/04/14 11:45:42;;;;;;;3.53;1.33;;;31.00;99.90;;;;;;4986643;28;20524;-84
2023/04/14 11:48:09;;;;;;;2.70;1.30;;;30.20;99.90;;;;;;4973577;28;20180;-84
2023/04/14 11:50:38;;;;;;;3.57;1.50;;;29.90;99.90;;;;;;4985314;28;20476;-85
2023/04/14 11:53:12;;;;;;;5.30;1.70;;;30.20;99.90;;;;;;4986133;28;20455;-85
2023/04/14 11:55:42;;;;;;;3.73;1.70;;;30.70;99.90;;;;;;4986388;28;20445;-85
2023/04/14 11:58:07;;;;;;;3.50;1.70;;;30.90;99.90;;;;;;4980643;28;20509;-85
2023/04/14 12:00:38;;;;;;;4.73;1.50;;;30.60;99.90;;;;;;4983631;28;20479;-85
2023/04/14 12:03:06;;;;;;;5.93;1.77;;;30.80;99.90;;;;;;4985311;28;20219;-84
2023/04/14 12:05:32;;;;;;;5.47;1.33;;;31.20;99.90;;;;;;4969815;28;20447;-85
2023/04/14 12:08:09;;;;;;;4.90;2.43;;;30.30;99.90;;;;;;4978172;28;20431;-85
2023/04/14 12:10:36;;;;;;;4.17;1.60;;;30.00;99.90;;;;;;4977045;28;20504;-84
2023/04/14 12:13:06;;;;;;;5.33;1.57;;;30.10;99.90;;;;;;4983489;28;20806;-84
2023/04/14 12:15:35;;;;;;;3.70;1.70;;;30.40;99.90;;;;;;4978272;28;20460;-84
2023/04/14 12:18:08;;;;;;;5.10;1.60;;;30.40;99.90;;;;;;4988501;28;20442;-83
2023/04/14 12:20:44;;;;;;;6.20;2.20;;;29.40;1.00;;;;;;4980579;28;20484;-85
2023/04/14 12:23:12;;;;;;;7.03;1.83;;;28.00;99.90;;;;;;4979815;28;20511;-84
2023/04/14 12:25:38;;;;;;;3.30;1.73;;;26.50;99.90;;;;;;4979658;28;20518;-84
2023/04/14 12:28:07;;;;;;;4.30;1.60;;;25.80;95.10;;;;;;4982686;28;20443;-84
2023/04/14 12:30:34;;;;;;;4.23;1.80;;;25.60;95.20;;;;;;4979975;28;20984;-84
2023/04/14 12:33:13;;;;;;;3.30;1.43;;;27.10;99.90;;;;;;4991633;28;20538;-84
2023/04/14 12:35:39;;;;;;;5.63;2.30;;;27.80;99.90;;;;;;4983275;28;20454;-83
2023/04/14 12:38:12;;;;;;;7.03;1.97;;;27.50;99.90;;;;;;4993570;28;20431;-83
2023/04/14 12:40:39;;;;;;;2.97;1.80;;;26.40;98.30;;;;;;4987815;28;20478;-84
2023/04/14 12:43:05;;;;;;;6.57;2.63;;;26.00;99.90;;;;;;4987068;28;21689;-84
2023/04/14 12:45:44;;;;;;;9.30;1.90;;;26.10;99.90;;;;;;4983598;28;20587;-85
2023/04/14 12:48:11;;;;;;;4.27;1.40;;;27.20;99.90;;;;;;4986988;28;20286;-84
2023/04/14 12:50:37;;;;;;;5.07;1.70;;;27.60;99.90;;;;;;4981758;28;20439;-83
2023/04/14 12:53:25;;;;;;;6.40;2.00;;;27.10;99.90;;;;;;4971156;28;21079;-83
2023/04/14 12:56:12;;;;;;;2.60;1.43;;;25.70;99.90;;;;;;4983629;28;20431;-83
2023/04/14 12:58:39;;;;;;;4.43;1.50;;;25.20;98.80;;;;;;4985815;28;20516;-83
2023/04/14 13:01:10;;;;;;;4.13;1.50;;;25.00;97.20;;;;;;4993635;28;20443;-83
2023/04/14 13:03:54;;;;;;;4.27;1.70;;;24.60;96.40;;;;;;4990112;28;20433;-84
2023/04/14 13:06:21;;;;;;;4.63;1.67;;;24.30;94.10;;;;;;4987117;28;20442;-83
2023/04/14 13:08:57;;;;;;;3.73;1.53;;;24.10;94.40;;;;;;4987515;28;20434;-83
2023/04/14 13:11:23;;;;;;;4.40;1.90;;;24.30;96.50;;;;;;4999349;28;20438;-83
2023/04/14 13:13:49;;;;;;;3.27;1.50;;;24.90;99.90;;;;;;4988160;28;20962;-83
2023/04/14 13:16:16;;;;;;;7.73;1.67;;;25.60;99.90;;;;;;4995038;28;20509;-83
2023/04/14 13:18:42;;;;;;;3.40;1.27;;;25.70;99.90;;;;;;4982942;28;20435;-83
2023/04/14 13:21:08;;;;;;;3.77;1.63;;;25.40;99.40;;;;;;4983767;28;20462;-83
2023/04/14 13:23:33;;;;;;;3.70;1.97;;;25.00;99.60;;;;;;4985450;28;20502;-84
2023/04/14 13:25:59;;;;;;;5.00;1.60;;;24.60;97.40;;;;;;4989169;28;20530;-83
2023/04/14 13:28:25;;;;;;;5.07;1.63;;;24.40;96.40;;;;;;4991281;28;20597;-83
2023/04/14 13:30:52;;;;;;;5.13;1.67;;;24.30;97.20;;;;;;4994603;28;20223;-84
2023/04/14 13:33:18;;;;;;;4.33;1.40;;;24.10;96.10;;;;;;4981898;28;20470;-84
2023/04/14 13:35:44;;;;;;;3.97;1.20;;;24.00;98.20;;;;;;4989867;28;20531;-83
2023/04/14 13:38:09;;;;;;;3.17;1.60;;;24.20;99.90;;;;;;4991787;28;20533;-85
2023/04/14 13:40:35;;;;;;;3.10;1.20;;;23.90;98.10;;;;;;4992952;28;20719;-83
2023/04/14 13:43:00;;;;;;;4.30;1.30;;;23.50;98.30;;;;;;4984326;28;20213;-84
2023/04/14 13:45:27;;;;;;;2.30;1.30;;;23.40;97.00;;;;;;4993083;28;20213;-84
2023/04/14 13:47:52;;;;;;;4.60;1.43;;;22.80;94.60;;;;;;4991010;28;20197;-83
2023/04/14 13:50:18;;;;;;;3.50;1.17;;;22.40;80.00;;;;;;4986137;28;20494;-84
2023/04/14 13:52:44;;;;;;;2.90;1.37;;;22.30;81.80;;;;;;4981770;28;20685;-84
2023/04/14 13:55:10;;;;;;;3.77;1.30;;;22.40;85.70;;;;;;4991415;28;20440;-84
2023/04/14 13:57:36;;;;;;;4.27;1.37;;;22.50;88.70;;;;;;4992165;28;20253;-84
2023/04/14 14:00:05;;;;;;;1.80;1.20;;;22.70;88.80;;;;;;4998455;28;20197;-85
2023/04/14 14:02:31;;;;;;;5.27;1.50;;;22.80;90.60;;;;;;4994158;28;20273;-84
2023/04/14 14:04:58;;;;;;;3.10;1.63;;;22.70;98.00;;;;;;4995178;28;20463;-85
2023/04/14 14:07:24;;;;;;;6.77;1.30;;;22.60;86.40;;;;;;4999188;28;20967;-84
2023/04/14 14:09:49;;;;;;;3.13;1.23;;;22.60;85.40;;;;;;4991644;28;20468;-84
2023/04/14 14:12:16;;;;;;;5.77;1.80;;;23.00;92.50;;;;;;4986152;28;20208;-85
2023/04/14 14:14:41;;;;;;;2.83;1.40;;;23.40;95.30;;;;;;4993749;28;20180;-85
2023/04/14 14:17:08;;;;;;;5.80;1.67;;;23.60;96.40;;;;;;4984570;28;20580;-84
2023/04/14 14:19:34;;;;;;;3.10;1.03;;;23.70;96.60;;;;;;4993693;28;20199;-84
2023/04/14 14:22:00;;;;;;;7.73;1.37;;;23.50;95.20;;;;;;4991601;28;20528;-85
2023/04/14 14:24:25;;;;;;;3.83;1.80;;;23.40;94.20;;;;;;5000919;28;20197;-84
2023/04/14 14:26:51;;;;;;;5.33;1.33;;;23.40;93.70;;;;;;4983253;28;20265;-86
2023/04/14 14:29:16;;;;;;;4.20;1.50;;;23.40;92.70;;;;;;4991426;28;20484;-85
2023/04/14 14:31:42;;;;;;;4.03;1.40;;;23.50;91.80;;;;;;4992180;28;20194;-85
2023/04/14 14:34:08;;;;;;;4.27;1.13;;;23.70;92.30;;;;;;4993602;28;20213;-84
2023/04/14 14:36:34;;;;;;;4.50;1.53;;;23.60;93.00;;;;;;4991897;28;20179;-84
2023/04/14 14:38:59;;;;;;;5.63;1.80;;;23.40;86.80;;;;;;5003206;28;20443;-84
2023/04/14 14:41:25;;;;;;;4.00;1.77;;;23.20;74.80;;;;;;4991603;28;20195;-85
2023/04/14 14:43:51;;;;;;;7.67;1.60;;;23.20;67.30;;;;;;4997179;28;20184;-82
2023/04/14 14:46:16;;;;;;;4.37;1.70;;;23.30;58.90;;;;;;4991744;28;20232;-83
2023/04/14 14:48:42;;;;;;;2.73;1.23;;;23.50;54.60;;;;;;4987077;28;20226;-84
2023/04/14 14:51:07;;;;;;;3.27;1.17;;;23.60;49.90;;;;;;4994426;28;20198;-84
2023/04/14 14:53:33;;;;;;;3.13;1.67;;;23.50;48.60;;;;;;4991149;28;20206;-84
2023/04/14 14:55:58;;;;;;;5.13;1.47;;;23.20;47.90;;;;;;4990790;28;20185;-83
2023/04/14 14:58:24;;;;;;;5.23;1.50;;;23.10;47.10;;;;;;4981329;28;20194;-85
2023/04/14 15:00:49;;;;;;;4.77;1.27;;;22.60;45.50;;;;;;4981371;28;20199;-83
2023/04/14 15:03:15;;;;;;;9.87;2.20;;;22.20;44.30;;;;;;4994417;28;20209;-84
2023/04/14 15:05:41;;;;;;;4.07;1.40;;;21.80;42.50;;;;;;4992244;28;20279;-84
2023/04/14 15:08:07;;;;;;;3.10;1.40;;;21.40;40.90;;;;;;4983615;28;20471;-84
2023/04/14 15:10:33;;;;;;;5.67;1.40;;;21.00;39.90;;;;;;4997475;28;20206;-83
2023/04/14 15:12:58;;;;;;;4.00;1.50;;;20.60;38.70;;;;;;4994168;28;20196;-84
2023/04/14 15:15:24;;;;;;;2.50;1.60;;;20.30;38.10;;;;;;4998833;28;20442;-84
2023/04/14 15:17:49;;;;;;;4.47;1.63;;;20.10;37.80;;;;;;4988483;28;20195;-84
2023/04/14 15:20:15;;;;;;;5.40;1.93;;;20.10;38.80;;;;;;4998877;28;20186;-84
2023/04/14 15:22:41;;;;;;;5.13;1.80;;;20.10;40.30;;;;;;4992901;28;20297;-83
2023/04/14 15:25:07;;;;;;;6.30;1.47;;;20.10;39.90;;;;;;4991396;28;20481;-83
2023/04/14 15:27:33;;;;;;;4.80;1.30;;;20.10;40.30;;;;;;4984312;28;20200;-83
2023/04/14 15:29:59;;;;;;;4.43;1.53;;;19.90;39.50;;;;;;4986714;28;20481;-83
2023/04/14 15:32:25;;;;;;;3.73;1.30;;;19.70;39.10;;;;;;4993072;28;20209;-83
2023/04/14 15:34:54;;;;;;;3.70;1.33;;;19.50;39.40;;;;;;4986234;28;20179;-82
2023/04/14 15:37:20;;;;;;;3.63;1.47;;;19.40;39.10;;;;;;4991790;28;20433;-84
2023/04/14 15:39:46;;;;;;;6.07;1.77;;;19.40;39.80;;;;;;4997835;28;20441;-84
2023/04/14 15:42:11;;;;;;;4.33;1.40;;;19.40;40.30;;;;;;4997278;28;20271;-84
2023/04/14 15:44:36;;;;;;;4.30;1.10;;;19.40;42.40;;;;;;4993962;28;20189;-84
2023/04/14 15:47:03;;;;;;;4.13;1.53;;;19.40;42.40;;;;;;4991169;28;20231;-83
2023/04/14 15:49:29;;;;;;;7.73;2.50;;;19.40;42.40;;;;;;4997486;28;20325;-83
2023/04/14 15:51:56;;;;;;;5.07;1.70;;;19.30;43.20;;;;;;4983543;28;20477;-83
2023/04/14 15:54:21;;;;;;;2.67;1.33;;;19.30;44.00;;;;;;4991539;28;20177;-83
2023/04/14 15:56:51;;;;;;;2.80;1.10;;;19.30;44.40;;;;;;4985855;28;20447;-83
2023/04/14 15:59:16;;;;;;;4.07;1.20;;;19.40;45.30;;;;;;4989585;28;20193;-82
2023/04/14 16:01:42;;;;;;;4.57;1.57;;;19.40;45.30;;;;;;4985005;28;20473;-83
2023/04/14 16:04:07;;;;;;;2.97;1.13;;;19.40;45.50;;;;;;4986584;28;20203;-83
2023/04/14 16:06:35;;;;;;;3.80;1.53;;;19.20;44.60;;;;;;4989115;28;20704;-83
2023/04/14 16:09:00;;;;;;;4.40;1.30;;;19.20;44.70;;;;;;4977605;28;20218;-82
2023/04/14 16:11:28;;;;;;;3.63;1.20;;;19.10;44.30;;;;;;4990263;28;20507;-83
2023/04/14 16:13:54;;;;;;;4.80;1.50;;;19.20;45.70;;;;;;4992170;28;20272;-82
2023/04/14 16:16:23;;;;;;;4.10;1.80;;;19.30;46.00;;;;;;4988231;28;20484;-82
2023/04/14 16:18:49;;;;;;;4.67;1.50;;;19.20;46.00;;;;;;4990735;28;20811;-83
2023/04/14 16:21:14;;;;;;;3.10;1.30;;;19.10;45.40;;;;;;4993424;28;20437;-82
2023/04/14 16:23:41;;;;;;;2.10;1.10;;;19.10;45.70;;;;;;4984045;28;20220;-83
2023/04/14 16:26:07;;;;;;;5.30;1.80;;;18.90;45.20;;;;;;4983689;28;20246;-82
2023/04/14 16:28:33;;;;;;;5.33;1.67;;;18.80;45.40;;;;;;4985450;28;20434;-82
2023/04/14 16:31:00;;;;;;;7.37;1.90;;;18.60;44.10;;;;;;4986419;28;20558;-82
2023/04/14 16:33:26;;;;;;;6.77;2.40;;;18.50;43.90;;;;;;4977343;28;20473;-82
2023/04/14 16:35:52;;;;;;;9.10;2.00;;;18.50;44.90;;;;;;4984387;28;20443;-83
2023/04/14 16:38:17;;;;;;;7.40;1.50;;;18.40;44.80;;;;;;4990584;28;20496;-81
2023/04/14 16:40:43;;;;;;;4.30;1.40;;;18.20;44.10;;;;;;4991419;28;20460;-83
2023/04/14 16:43:09;;;;;;;6.17;1.43;;;18.20;44.20;;;;;;4990713;28;20277;-82
2023/04/14 16:45:34;;;;;;;5.57;1.37;;;18.10;44.80;;;;;;4993475;28;20210;-84
2023/04/14 16:48:00;;;;;;;8.20;2.23;;;18.10;45.00;;;;;;4993666;28;20248;-83
2023/04/14 16:50:26;;;;;;;6.30;1.53;;;18.00;45.40;;;;;;4996622;28;20270;-85
2023/04/14 16:52:52;;;;;;;4.50;1.93;;;18.00;45.60;;;;;;4993237;28;20210;-83
2023/04/14 16:55:17;;;;;;;5.93;1.60;;;18.00;46.20;;;;;;4997833;28;20444;-84
2023/04/14 16:57:43;;;;;;;3.93;1.60;;;17.90;46.00;;;;;;4984888;28;20187;-82
2023/04/14 17:00:12;;;;;;;3.10;1.10;;;17.90;46.50;;;;;;4990883;28;20205;-82
2023/04/14 17:02:38;;;;;;;3.83;1.50;;;17.80;45.90;;;;;;4989945;28;20211;-84
2023/04/14 17:05:04;;;;;;;3.27;1.90;;;17.80;45.60;;;;;;4996868;28;20442;-83
2023/04/14 17:07:30;;;;;;;5.03;1.00;;;17.80;46.00;;;;;;4987027;28;20863;-84
2023/04/14 17:09:56;;;;;;;3.70;1.67;;;17.80;47.40;;;;;;4996883;28;20500;-83
2023/04/14 17:12:22;;;;;;;4.10;1.60;;;17.80;47.80;;;;;;4997574;28;20289;-82
2023/04/14 17:14:47;;;;;;;7.63;1.43;;;17.80;48.00;;;;;;4993294;28;20468;-82
2023/04/14 17:17:13;;;;;;;4.30;1.50;;;17.70;48.30;;;;;;4985154;28;20189;-82
2023/04/14 17:19:38;;;;;;;3.87;1.30;;;17.70;47.60;;;;;;5005186;28;20195;-83
2023/04/14 17:22:04;;;;;;;3.80;1.60;;;17.70;47.50;;;;;;4994236;28;20210;-84
2023/04/14 17:24:29;;;;;;;3.03;1.40;;;17.70;47.90;;;;;;4998451;28;20239;-84
2023/04/14 17:26:56;;;;;;;6.77;1.43;;;17.70;48.30;;;;;;4993284;28;20193;-83
2023/04/14 17:29:21;;;;;;;4.33;1.63;;;17.70;48.90;;;;;;4999890;28;20207;-83
2023/04/14 17:31:47;;;;;;;5.30;1.10;;;17.50;48.50;;;;;;4986608;28;21680;-83
2023/04/14 17:34:17;;;;;;;3.80;1.30;;;17.50;48.50;;;;;;4987807;28;20186;-83
2023/04/14 17:36:43;;;;;;;5.00;1.77;;;17.40;49.10;;;;;;4992109;28;20189;-85
2023/04/14 17:39:09;;;;;;;14.20;12.67;;;17.30;49.40;;;;;;4992014;28;20444;-84
2023/04/14 17:41:36;;;;;;;68.37;28.77;;;17.30;49.90;;;;;;4990012;28;20462;-83
2023/04/14 17:44:01;;;;;;;18.80;9.17;;;17.20;49.80;;;;;;4982321;28;21019;-83
2023/04/14 17:46:32;;;;;;;4.87;2.30;;;17.10;50.20;;;;;;4987792;28;20464;-84
2023/04/14 17:49:00;;;;;;;7.23;2.50;;;17.10;50.60;;;;;;4985977;28;20467;-82
2023/04/14 17:51:26;;;;;;;6.23;1.90;;;17.00;50.70;;;;;;4990075;28;20475;-84
2023/04/14 17:53:51;;;;;;;9.47;2.30;;;17.00;52.10;;;;;;4991644;28;20439;-83
2023/04/14 17:56:17;;;;;;;5.10;2.53;;;16.90;51.80;;;;;;4995926;28;20446;-83
2023/04/14 17:58:45;;;;;;;4.10;2.03;;;16.80;51.70;;;;;;5002270;28;20191;-83
2023/04/14 18:01:11;;;;;;;8.03;2.60;;;16.80;52.00;;;;;;4988476;28;20188;-83
2023/04/14 18:03:36;;;;;;;6.83;2.20;;;16.70;52.50;;;;;;4986793;28;20493;-83
2023/04/14 18:06:02;;;;;;;6.53;2.60;;;16.50;52.50;;;;;;4989989;28;20187;-83
2023/04/14 18:08:28;;;;;;;6.80;2.80;;;16.40;52.40;;;;;;4998468;28;20248;-83
2023/04/14 18:10:53;;;;;;;5.70;2.40;;;16.30;52.20;;;;;;4992287;28;20231;-84
2023/04/14 18:13:19;;;;;;;6.60;2.83;;;16.30;52.20;;;;;;4996178;28;20457;-84
2023/04/14 18:15:47;;;;;;;15.70;5.17;;;16.20;53.30;;;;;;4985676;28;20237;-85
2023/04/14 18:18:13;;;;;;;10.50;4.40;;;16.10;54.10;;;;;;4977547;28;20928;-85
2023/04/14 18:20:46;;;;;;;13.57;5.10;;;16.00;53.90;;;;;;4980334;28;20493;-86
2023/04/14 18:23:12;;;;;;;9.50;3.70;;;15.90;54.90;;;;;;4980792;28;20309;-86
2023/04/14 18:25:38;;;;;;;6.60;3.10;;;15.80;54.70;;;;;;4969133;28;20441;-85
2023/04/14 18:28:09;;;;;;;6.47;1.80;;;15.70;54.50;;;;;;4978796;28;20434;-86
2023/04/14 18:30:41;;;;;;;4.90;1.83;;;15.60;55.10;;;;;;4975409;28;20219;-86
2023/04/14 18:33:07;;;;;;;11.57;2.50;;;15.50;56.10;;;;;;4991999;28;20461;-86
2023/04/14 18:35:33;;;;;;;4.03;2.10;;;15.40;56.80;;;;;;4987935;28;20505;-83
2023/04/14 18:37:58;;;;;;;6.50;2.30;;;15.30;57.80;;;;;;4986951;28;20465;-83
2023/04/14 18:40:24;;;;;;;3.33;1.57;;;15.20;58.60;;;;;;4981996;28;20260;-84
2023/04/14 18:42:51;;;;;;;10.20;1.77;;;15.20;60.00;;;;;;4979851;28;20217;-84
2023/04/14 18:45:19;;;;;;;7.33;2.33;;;15.10;61.20;;;;;;4980663;28;20463;-84
2023/04/14 18:48:17;;;;;;;8.07;2.00;;;15.00;62.10;;;;;;4980514;28;20447;-85
2023/04/14 18:57:32;;;;;;;7.67;2.60;;;14.70;63.40;;;;;;4964957;28;20444;-85
2023/04/14 18:59:59;;;;;;;11.13;2.10;;;14.70;63.60;;;;;;4985300;28;20440;-86
2023/04/14 19:03:08;;;;;;;;;;;;;;;;;;;;;
2023/04/14 19:05:50;;;;;;;;;;;;;;;;;;;;;
2023/04/14 19:09:18;;;;;;;12.03;3.40;;;14.50;68.00;;;;;;4971405;28;20445;-85
2023/04/14 19:12:08;;;;;;;10.53;3.40;;;14.40;67.70;;;;;;4906291;29;21072;-86
2023/04/14 19:14:34;;;;;;;15.77;4.13;;;14.30;68.10;;;;;;4930008;29;20459;-85
2023/04/14 19:17:00;;;;;;;16.20;6.00;;;14.20;68.70;;;;;;4991531;28;20444;-85
2023/04/14 19:19:25;;;;;;;11.70;4.37;;;14.20;69.10;;;;;;4988267;28;20524;-85
2023/04/14 19:21:53;;;;;;;15.10;5.80;;;14.10;69.70;;;;;;4988167;28;20208;-85
2023/04/14 19:24:19;;;;;;;11.10;4.13;;;14.10;71.20;;;;;;4983233;28;20657;-85
2023/04/14 19:26:44;;;;;;;10.50;3.37;;;14.00;71.30;;;;;;4983826;28;20442;-85
2023/04/14 19:29:13;;;;;;;7.93;2.93;;;14.00;72.60;;;;;;4981357;28;20287;-85
2023/04/14 19:31:41;;;;;;;10.60;3.60;;;13.90;73.70;;;;;;4986947;28;20211;-84
2023/04/14 19:34:07;;;;;;;12.10;3.57;;;13.80;73.90;;;;;;4988607;28;20802;-85
2023/04/14 19:36:33;;;;;;;10.13;3.67;;;13.80;75.60;;;;;;4982416;28;20461;-84
2023/04/14 19:39:02;;;;;;;15.30;4.30;;;13.80;75.80;;;;;;4984338;28;20426;-85
2023/04/14 19:41:30;;;;;;;9.80;3.50;;;13.70;76.40;;;;;;4988606;28;20609;-85
2023/04/14 19:43:56;;;;;;;7.90;3.17;;;13.60;77.90;;;;;;4985893;28;20440;-84
2023/04/14 19:46:25;;;;;;;11.13;3.70;;;13.60;78.20;;;;;;5002041;28;20438;-85
2023/04/14 19:48:51;;;;;;;12.70;4.33;;;13.50;78.30;;;;;;4987469;28;20187;-85